Time;durP1;ratioP1;P1;durP2;ratioP2;P2;SDS_P1;SDS_P2;PMS_P1;PMS_P2;Temp;Humidity;BMP_temperature;BMP_pressure;BME280_temperature;BME280_humidity;BME280_pressure;Samples;Min_cycle;Max_cycle;Signal;HPM_P1;HPM_P2
2022/10/19 04:30:40;;;;;;;;;9.67;9.00;;;;;15.36;79.50;101876.47;5794947;23;45467;-60
2022/10/19 04:33:06;;;;;;;;;10.00;8.00;;;;;15.36;79.65;101876.47;5006369;28;70180;-59
2022/10/19 04:35:31;;;;;;;;;7.33;7.00;;;;;15.36;78.96;101886.31;5003263;28;68892;-59
2022/10/19 04:37:58;;;;;;;;;12.00;9.67;;;;;15.37;79.27;101882.69;5013802;28;64501;-59
2022/10/19 04:40:24;;;;;;;;;7.00;7.00;;;;;15.34;79.31;101883.72;5004033;28;45827;-59
2022/10/19 04:42:49;;;;;;;;;8.33;8.00;;;;;15.35;79.20;101882.75;4995840;28;45432;-60
2022/10/19 04:45:15;;;;;;;;;9.00;9.00;;;;;15.35;79.02;101879.22;4998183;28;71048;-59
2022/10/19 04:47:40;;;;;;;;;13.67;9.33;;;;;15.35;79.10;101871.19;4998721;28;61619;-59
2022/10/19 04:50:05;;;;;;;;;9.33;8.00;;;;;15.34;79.07;101864.09;4995154;28;61413;-59
2022/10/19 04:52:31;;;;;;;;;12.00;11.00;;;;;15.33;79.24;101862.34;4993104;28;46922;-59
2022/10/19 04:54:56;;;;;;;;;11.67;9.00;;;;;15.31;79.15;101849.03;4995310;28;71376;-59
2022/10/19 04:57:21;;;;;;;;;8.33;8.33;;;;;15.30;79.36;101852.66;4992310;28;66354;-59
2022/10/19 04:59:46;;;;;;;;;14.67;12.00;;;;;15.30;79.54;101847.28;4991763;28;68217;-61
2022/10/19 05:02:12;;;;;;;;;9.00;7.67;;;;;15.29;79.06;101834.88;4996583;28;66922;-61
2022/10/19 05:04:37;;;;;;;;;8.33;8.33;;;;;15.28;79.72;101834.91;4995966;28;70982;-61
2022/10/19 05:07:02;;;;;;;;;10.33;10.33;;;;;15.26;79.47;101829.66;4996425;28;59386;-61
2022/10/19 05:09:28;;;;;;;;;10.00;9.33;;;;;15.25;79.63;101822.53;4990989;28;45547;-61
2022/10/19 05:11:53;;;;;;;;;11.67;9.00;;;;;15.25;79.23;101819.00;4991873;28;63322;-61
2022/10/19 05:14:18;;;;;;;;;13.33;13.33;;;;;15.24;79.73;101817.28;4992962;28;58661;-61
2022/10/19 05:16:44;;;;;;;;;14.00;13.00;;;;;15.22;80.37;101820.03;4998063;28;67092;-61
2022/10/19 05:19:12;;;;;;;;;14.00;13.00;;;;;15.20;79.96;101813.88;4995173;28;45556;-61
2022/10/19 05:21:38;;;;;;;;;13.33;12.00;;;;;15.19;79.93;101817.53;4991110;28;46342;-61
2022/10/19 05:24:04;;;;;;;;;12.00;12.00;;;;;15.18;79.93;101815.81;4997959;28;45392;-61
2022/10/19 05:26:29;;;;;;;;;7.67;7.33;;;;;15.18;79.90;101823.84;4991566;28;45361;-61
2022/10/19 05:28:58;;;;;;;;;14.33;12.67;;;;;15.17;79.69;101819.41;4991058;28;45434;-61
2022/10/19 05:31:28;;;;;;;;;17.00;11.33;;;;;15.17;79.58;101816.75;4998511;28;46266;-61
2022/10/19 05:33:57;;;;;;;;;13.67;12.33;;;;;15.17;79.80;101814.06;4997107;28;46719;-61
2022/10/19 05:36:25;;;;;;;;;11.67;11.67;;;;;15.17;79.58;101814.06;4998604;28;45353;-61
2022/10/19 05:38:52;;;;;;;;;16.33;13.67;;;;;15.16;80.10;101801.59;4997722;28;45497;-62
2022/10/19 05:41:18;;;;;;;;;12.00;12.00;;;;;15.18;80.21;101802.41;4988382;28;46279;-62
2022/10/19 05:43:44;;;;;;;;;10.00;8.67;;;;;15.20;79.45;101804.06;4998309;28;45414;-62
2022/10/19 05:46:13;;;;;;;;;11.33;9.33;;;;;15.20;79.68;101798.69;4997906;28;45247;-62
2022/10/19 05:48:39;;;;;;;;;10.33;10.33;;;;;15.18;79.70;101792.53;4995524;28;45548;-62
2022/10/19 05:51:06;;;;;;;;;9.33;8.00;;;;;15.18;79.84;101792.53;4997344;28;46334;-62
2022/10/19 05:53:33;;;;;;;;;10.33;10.33;;;;;15.18;80.03;101786.31;4997461;28;45451;-59
2022/10/19 05:55:58;;;;;;;;;13.00;10.67;;;;;15.17;79.51;101787.25;4996178;28;45688;-60
2022/10/19 05:58:24;;;;;;;;;14.00;12.33;;;;;15.15;79.55;101784.69;4997572;28;65527;-61
2022/10/19 06:00:54;;;;;;;;;12.67;11.33;;;;;15.14;79.88;101788.28;4995740;28;68153;-62
2022/10/19 06:03:20;;;;;;;;;13.67;10.33;;;;;15.14;79.85;101788.28;4994190;28;46763;-62
2022/10/19 06:05:46;;;;;;;;;13.33;11.00;;;;;15.14;79.78;101784.75;4997663;28;45507;-62
2022/10/19 06:08:11;;;;;;;;;12.33;10.33;;;;;15.13;80.26;101789.25;4998220;28;45282;-62
2022/10/19 06:10:36;;;;;;;;;12.00;12.00;;;;;15.13;79.69;101785.72;4995270;28;62796;-62
2022/10/19 06:13:02;;;;;;;;;10.00;10.00;;;;;15.13;79.75;101796.41;4994120;28;68119;-60
2022/10/19 06:15:27;;;;;;;;;17.33;16.33;;;;;15.13;80.36;101805.31;4991842;28;67046;-61
2022/10/19 06:17:52;;;;;;;;;14.00;14.00;;;;;15.14;80.17;101803.53;4996494;28;62341;-62
2022/10/19 06:20:18;;;;;;;;;14.00;12.67;;;;;15.15;80.10;101802.56;4996176;28;70792;-62
2022/10/19 06:22:43;;;;;;;;;13.67;13.67;;;;;15.18;79.58;101805.09;4995496;28;45684;-62
2022/10/19 06:25:09;;;;;;;;;11.33;10.00;;;;;15.19;79.60;101799.63;4986415;28;45511;-61
2022/10/19 06:27:34;;;;;;;;;13.00;13.00;;;;;15.22;79.83;101791.41;4991854;28;45520;-61
2022/10/19 06:29:59;;;;;;;;;16.00;12.33;;;;;15.25;79.38;101793.06;4995785;28;69974;-61
2022/10/19 06:32:24;;;;;;;;;15.00;13.33;;;;;15.28;79.30;101792.91;4996837;28;65469;-60
2022/10/19 06:34:50;;;;;;;;;13.33;13.33;;;;;15.31;79.57;101803.47;4984709;28;65338;-62
2022/10/19 06:37:15;;;;;;;;;15.33;12.67;;;;;15.34;79.58;101792.59;4984431;28;59924;-60
2022/10/19 06:39:40;;;;;;;;;17.00;14.33;;;;;15.36;79.51;101796.03;4966440;28;73671;-61
2022/10/19 06:42:06;;;;;;;;;13.33;13.33;;;;;15.42;79.07;101807.38;4964045;28;68973;-61
2022/10/19 06:44:31;;;;;;;;;14.33;14.00;;;;;15.44;79.13;101795.63;4985312;28;45657;-59
2022/10/19 06:46:56;;;;;;;;;14.67;13.33;;;;;15.47;79.13;101792.75;4995312;28;68358;-59
2022/10/19 06:49:22;;;;;;;;;16.67;14.00;;;;;15.53;78.73;101783.53;4987964;28;65079;-60
2022/10/19 06:51:47;;;;;;;;;14.33;14.00;;;;;15.57;79.03;101782.41;4993301;28;66174;-60
2022/10/19 06:54:12;;;;;;;;;14.00;13.00;;;;;15.60;78.91;101782.22;4995780;28;63211;-60
2022/10/19 06:56:38;;;;;;;;;16.00;12.67;;;;;15.64;78.27;101770.38;4996714;28;63176;-60
2022/10/19 06:59:03;;;;;;;;;16.00;16.00;;;;;15.67;78.66;101780.06;4995916;28;73252;-60
2022/10/19 07:01:29;;;;;;;;;15.00;13.00;;;;;15.72;78.39;101794.09;4996565;28;45524;-64
2022/10/19 07:03:54;;;;;;;;;16.00;14.00;;;;;15.78;78.42;101785.69;4989160;28;53334;-62
2022/10/19 07:06:20;;;;;;;;;14.67;13.67;;;;;15.83;78.38;101786.34;4991089;28;48699;-63
2022/10/19 07:08:45;;;;;;;;;16.33;14.67;;;;;15.90;77.83;101781.47;4999515;28;45511;-63
2022/10/19 07:11:15;;;;;;;;;18.33;15.00;;;;;15.95;77.94;101782.09;4995076;28;45538;-63
2022/10/19 07:13:40;;;;;;;;;14.33;12.33;;;;;16.01;77.99;101784.44;4993265;28;45410;-63
2022/10/19 07:16:09;;;;;;;;;14.67;14.67;;;;;16.06;77.68;101785.97;4992572;28;45461;-63
2022/10/19 07:18:36;;;;;;;;;11.67;11.00;;;;;16.14;77.59;101773.84;4981984;28;45433;-63
2022/10/19 07:21:05;;;;;;;;;12.00;12.00;;;;;16.22;77.36;101759.97;4995187;28;45638;-63
2022/10/19 07:23:32;;;;;;;;;16.67;13.33;;;;;16.28;77.08;101765.00;4999345;28;45464;-63
2022/10/19 07:26:02;;;;;;;;;15.67;15.33;;;;;16.33;76.79;101762.88;4994004;28;46944;-63
2022/10/19 07:28:28;;;;;;;;;16.67;15.33;;;;;16.40;76.72;101768.78;4973589;28;46198;-63
2022/10/19 07:30:54;;;;;;;;;15.67;14.00;;;;;16.46;76.64;101765.69;4995061;28;45385;-63
2022/10/19 07:33:20;;;;;;;;;10.67;8.33;;;;;16.50;76.10;101756.53;4997716;28;66403;-63
2022/10/19 07:35:45;;;;;;;;;15.67;14.67;;;;;16.57;75.92;101764.19;4998463;28;45461;-63
2022/10/19 07:38:10;;;;;;;;;14.67;13.67;;;;;16.61;75.46;101769.31;4994673;28;46994;-63
2022/10/19 07:40:36;;;;;;;;;17.67;16.33;;;;;16.69;75.97;101766.16;4998449;28;50102;-63
2022/10/19 07:43:01;;;;;;;;;16.00;15.33;;;;;16.79;75.58;101763.75;4985621;28;45539;-63
2022/10/19 07:45:27;;;;;;;;;14.33;14.00;;;;;16.92;75.68;101763.91;4996657;28;45924;-63
2022/10/19 07:47:52;;;;;;;;;17.33;16.00;;;;;17.01;74.91;101771.41;4992544;28;55960;-63
2022/10/19 07:50:17;;;;;;;;;15.33;14.33;;;;;17.12;74.96;101762.69;4991215;28;69212;-63
2022/10/19 07:52:43;;;;;;;;;23.33;18.33;;;;;17.23;74.52;101762.84;4992475;28;49110;-63
2022/10/19 07:55:08;;;;;;;;;21.33;19.33;;;;;17.36;74.58;101762.94;4998364;28;52112;-63
2022/10/19 07:57:34;;;;;;;;;12.33;10.33;;;;;17.52;74.04;101760.13;4992897;28;46074;-63
2022/10/19 07:59:59;;;;;;;;;16.00;16.00;;;;;17.64;73.94;101758.50;4993256;28;45524;-63
2022/10/19 08:02:25;;;;;;;;;16.00;15.00;;;;;17.77;73.62;101763.91;4996089;28;65069;-63
2022/10/19 08:04:50;;;;;;;;;16.67;15.33;;;;;17.89;73.56;101771.22;4997789;28;45538;-63
2022/10/19 08:07:15;;;;;;;;;14.67;14.33;;;;;17.98;72.58;101765.25;4991312;28;69202;-63
2022/10/19 08:09:41;;;;;;;;;19.33;15.33;;;;;18.06;73.08;101758.50;4980581;28;45409;-63
2022/10/19 08:12:06;;;;;;;;;15.00;12.33;;;;;18.12;71.81;101764.34;4997054;28;49609;-64
2022/10/19 08:14:32;;;;;;;;;17.33;15.00;;;;;18.16;72.02;101764.97;4998399;28;46157;-63
2022/10/19 08:16:57;;;;;;;;;20.00;17.67;;;;;18.27;71.29;101762.44;4994734;28;45709;-64
2022/10/19 08:19:23;;;;;;;;;21.00;19.00;;;;;18.28;71.34;101755.22;4998050;28;54994;-63
2022/10/19 08:21:49;;;;;;;;;16.67;15.67;;;;;18.30;71.46;101761.34;4996796;28;45722;-63
2022/10/19 08:24:16;;;;;;;;;14.67;14.67;;;;;18.39;71.48;101762.56;4998828;28;45482;-63
2022/10/19 08:26:42;;;;;;;;;16.00;16.00;;;;;18.52;71.55;101744.59;4999529;28;45491;-63
2022/10/19 08:29:07;;;;;;;;;18.00;15.33;;;;;18.65;69.62;101753.53;4993277;28;68491;-63
2022/10/19 08:31:32;;;;;;;;;20.67;16.67;;;;;18.75;70.51;101739.47;4990832;28;45476;-63
2022/10/19 08:33:58;;;;;;;;;24.00;17.33;;;;;18.86;70.22;101744.94;4997168;28;45669;-63
2022/10/19 08:36:24;;;;;;;;;19.33;17.67;;;;;18.96;69.88;101743.34;4996034;28;46092;-63
2022/10/19 08:38:50;;;;;;;;;26.33;21.00;;;;;19.07;69.43;101739.88;4997374;28;45470;-63
2022/10/19 08:41:33;;;;;;;;;18.33;17.00;;;;;19.17;68.96;101740.09;4998722;28;49801;-63
2022/10/19 08:44:33;;;;;;;;;17.67;16.00;;;;;19.26;69.27;101736.75;4990686;28;45548;-63
2022/10/19 08:47:07;;;;;;;;;17.33;16.33;;;;;19.34;69.41;101734.34;4991537;28;45302;-63
2022/10/19 08:49:32;;;;;;;;;16.67;13.33;;;;;19.37;68.33;101730.56;4996189;28;45400;-63
2022/10/19 08:52:04;;;;;;;;;20.33;17.33;;;;;19.38;68.24;101729.59;4992505;28;45276;-63
2022/10/19 08:54:45;;;;;;;;;16.67;16.67;;;;;19.38;68.67;101724.19;4998590;28;45464;-63
2022/10/19 08:57:24;;;;;;;;;17.33;17.33;;;;;19.46;68.74;101723.63;4990238;28;45772;-63
2022/10/19 09:00:12;;;;;;;;;18.00;16.33;;;;;19.58;68.52;101730.84;4977002;28;45632;-63
2022/10/19 09:02:49;;;;;;;;;14.00;12.67;;;;;19.65;68.01;101736.66;4993459;28;45365;-63
2022/10/19 09:05:27;;;;;;;;;16.33;15.00;;;;;19.90;67.84;101732.16;4998424;28;45515;-63
2022/10/19 09:07:53;;;;;;;;;16.67;13.67;;;;;20.52;67.47;101736.44;4981461;28;46466;-65
2022/10/19 09:10:23;;;;;;;;;14.00;14.00;;;;;21.15;66.55;101734.19;4979626;28;45461;-64
2022/10/19 09:12:59;;;;;;;;;16.00;16.00;;;;;21.94;65.15;101730.50;4972718;28;45708;-64
2022/10/19 09:15:39;;;;;;;;;13.00;12.50;;;;;23.18;63.29;101714.50;4979629;28;45700;-58
2022/10/19 09:18:09;;;;;;;;;13.67;13.67;;;;;23.57;61.88;101716.44;4989262;28;46248;-58
2022/10/19 09:20:38;;;;;;;;;13.00;12.33;;;;;23.86;61.26;101702.09;4970570;28;45421;-58
2022/10/19 09:23:15;;;;;;;;;14.33;13.00;;;;;24.16;58.63;101701.09;4978703;28;45467;-58
2022/10/19 09:25:41;;;;;;;;;18.00;17.33;;;;;24.10;59.20;101704.38;4993157;28;45467;-58
2022/10/19 09:28:19;;;;;;;;;13.00;13.00;;;;;24.39;58.71;101698.03;4962671;28;77822;-58
2022/10/19 09:30:45;;;;;;;;;14.67;13.00;;;;;25.25;56.80;101702.50;4993859;28;45470;-59
2022/10/19 09:33:16;;;;;;;;;10.67;10.67;;;;;26.16;55.48;101703.47;4972017;28;65552;-59
2022/10/19 09:35:43;;;;;;;;;12.67;12.33;;;;;27.33;54.41;101701.28;4976994;28;46426;-59
2022/10/19 09:38:11;;;;;;;;;13.50;13.50;;;;;28.20;51.94;101696.34;4994335;28;46337;-59
2022/10/19 09:40:36;;;;;;;;;13.50;13.50;;;;;28.79;48.86;101697.97;4963757;28;45660;-59
2022/10/19 09:43:18;;;;;;;;;13.00;11.50;;;;;29.34;48.65;101696.22;4997655;28;45758;-60
2022/10/19 09:45:49;;;;;;;;;11.75;10.75;;;;;30.26;47.30;101696.44;4997056;28;45603;-60
2022/10/19 09:48:31;;;;;;;;;14.50;10.50;;;;;31.10;44.99;101696.25;4996517;28;46201;-60
2022/10/19 09:51:11;;;;;;;;;12.50;10.75;;;;;31.33;43.28;101695.28;4993801;28;45484;-60
2022/10/19 09:53:37;;;;;;;;;11.25;9.25;;;;;31.57;39.41;101704.19;4997307;28;45493;-60
2022/10/19 09:56:05;;;;;;;;;11.50;8.75;;;;;31.29;42.38;101693.94;4997441;28;45412;-60
2022/10/19 09:58:31;;;;;;;;;12.50;11.75;;;;;31.56;42.70;101689.59;4978926;28;46166;-60
2022/10/19 10:00:57;;;;;;;;;13.25;8.50;;;;;31.87;37.53;101695.88;4995705;28;45421;-60
2022/10/19 10:03:24;;;;;;;;;10.25;10.25;;;;;31.48;41.64;101687.81;4979553;28;45760;-60
2022/10/19 10:05:50;;;;;;;;;13.50;10.50;;;;;31.90;42.40;101673.47;4996328;28;45937;-61
2022/10/19 10:08:21;;;;;;;;;12.00;9.75;;;;;32.69;40.08;101672.38;4980048;28;46787;-60
2022/10/19 10:10:57;;;;;;;;;8.75;8.75;;;;;33.04;40.14;101658.59;4996988;28;45432;-60
2022/10/19 10:13:24;;;;;;;;;10.50;9.25;;;;;33.47;38.52;101663.84;4997497;28;45460;-61
2022/10/19 10:16:00;;;;;;;;;9.75;9.75;;;;;34.15;38.51;101663.94;4979509;28;45337;-60
2022/10/19 10:18:27;;;;;;;;;11.75;10.25;;;;;34.74;37.68;101662.97;4980446;28;45432;-60
2022/10/19 10:21:03;;;;;;;;;8.25;8.25;;;;;35.34;36.39;101667.44;4962715;28;60125;-61
2022/10/19 10:23:33;;;;;;;;;9.50;8.25;;;;;35.42;32.87;101667.19;4996364;28;45512;-60
2022/10/19 10:26:00;;;;;;;;;11.50;10.00;;;;;35.33;34.66;101660.22;4987798;28;45399;-60
2022/10/19 10:28:27;;;;;;;;;8.00;8.00;;;;;35.57;35.05;101655.81;4982203;28;46013;-61
2022/10/19 10:30:59;;;;;;;;;13.25;12.00;;;;;35.76;31.07;101656.75;4968043;28;45592;-61
2022/10/19 10:33:26;;;;;;;;;12.25;11.00;;;;;35.58;32.52;101660.28;4973218;28;45430;-61
2022/10/19 10:35:55;;;;;;;;;8.75;8.50;;;;;35.16;31.93;101651.56;4959463;28;45654;-60
2022/10/19 10:38:24;;;;;;;;;10.25;8.00;;;;;34.45;33.58;101634.81;4957534;28;46364;-60
2022/10/19 10:40:56;;;;;;;;;8.25;8.25;;;;;34.13;34.03;101644.81;4962927;28;45449;-60
2022/10/19 10:43:30;;;;;;;;;11.00;10.75;;;;;34.13;34.39;101637.38;4960706;28;45516;-60
2022/10/19 10:46:00;;;;;;;;;11.50;11.00;;;;;33.74;34.28;101641.84;4977470;28;46847;-60
2022/10/19 10:48:30;;;;;;;;;9.50;9.50;;;;;32.99;34.39;101630.81;4963489;28;46046;-60
2022/10/19 10:50:57;;;;;;;;;12.75;10.50;;;;;32.76;35.12;101617.38;4980393;28;45384;-60
2022/10/19 10:53:30;;;;;;;;;5.50;5.50;;;;;32.71;35.14;101622.59;4948031;28;45461;-60
2022/10/19 10:55:55;;;;;;;;;8.00;8.00;;;;;32.87;35.47;101614.03;4976843;28;45578;-60
2022/10/19 10:58:30;;;;;;;;;13.00;9.00;;;;;32.89;34.30;101611.06;4978443;28;45703;-60
2022/10/19 11:00:57;;;;;;;;;9.25;8.25;;;;;32.23;34.90;101612.38;4973378;28;45571;-60
2022/10/19 11:03:27;;;;;;;;;10.50;10.50;;;;;32.12;35.49;101608.25;4963001;28;45460;-60
2022/10/19 11:05:58;;;;;;;;;10.75;9.25;;;;;32.04;35.66;101606.50;4959509;28;46074;-60
2022/10/19 11:08:46;;;;;;;;;7.50;7.50;;;;;31.87;35.22;101608.69;4979477;28;46345;-60
2022/10/19 11:11:17;;;;;;;;;8.25;6.50;;;;;31.63;36.13;101601.75;4978962;28;45323;-60
2022/10/19 11:13:55;;;;;;;;;15.75;11.25;;;;;31.11;36.42;101590.81;4979524;28;45475;-60
2022/10/19 11:16:26;;;;;;;;;10.25;9.50;;;;;30.74;36.65;101578.97;4956031;28;45681;-60
2022/10/19 11:19:06;;;;;;;;;8.00;8.00;;;;;30.54;36.79;101573.22;4961502;28;45504;-60
2022/10/19 11:21:54;;;;;;;;;11.50;8.75;;;;;30.51;37.26;101574.44;4980698;28;45461;-59
2022/10/19 11:24:25;;;;;;;;;9.50;9.50;;;;;31.05;37.14;101571.53;4978536;28;45541;-60
2022/10/19 11:27:18;;;;;;;;;9.75;9.50;;;;;31.70;36.20;101555.91;4972502;28;45444;-59
2022/10/19 11:30:10;;;;;;;;;10.00;10.00;;;;;32.44;35.35;101553.69;4974476;28;46049;-60
2022/10/19 11:32:47;;;;;;;;;12.00;10.00;;;;;32.63;34.70;101535.53;4978205;28;45369;-60
2022/10/19 11:35:18;;;;;;;;;10.00;9.75;;;;;32.91;34.04;101543.69;4977732;28;45534;-60
2022/10/19 11:38:11;;;;;;;;;9.50;9.00;;;;;33.19;34.42;101528.06;4975626;28;45841;-60
2022/10/19 11:40:42;;;;;;;;;10.00;10.00;;;;;33.19;33.02;101530.84;4973142;28;45498;-60
2022/10/19 11:43:31;;;;;;;;;7.00;6.00;;;;;32.58;33.36;101519.66;4975499;28;45552;-60
2022/10/19 11:46:29;;;;;;;;;10.75;10.75;;;;;31.54;34.84;101515.78;4975442;28;45850;-60
2022/10/19 11:49:14;;;;;;;;;7.50;7.50;;;;;30.97;35.85;101531.28;4970386;28;45594;-60
2022/10/19 11:51:50;;;;;;;;;10.00;9.00;;;;;30.59;36.78;101526.00;4971296;28;46349;-59
2022/10/19 11:54:22;;;;;;;;;10.25;9.75;;;;;30.07;37.32;101520.41;4975562;28;45559;-60
2022/10/19 11:56:47;;;;;;;;;8.25;8.25;;;;;29.40;38.20;101502.91;4979434;28;45530;-60
2022/10/19 11:59:49;;;;;;;;;7.75;7.00;;;;;28.50;38.98;101509.75;4982872;28;45513;-60
2022/10/19 12:03:13;;;;;;;;;10.50;8.00;;;;;27.65;40.89;101492.91;4977301;28;45506;-60
2022/10/19 12:06:03;;;;;;;;;10.75;7.75;;;;;27.05;42.43;101491.31;4915121;28;45473;-60
2022/10/19 12:08:31;;;;;;;;;10.00;10.00;;;;;26.68;43.33;101496.16;4968401;28;45524;-60
2022/10/19 12:11:12;;;;;;;;;8.00;8.00;;;;;26.40;43.73;101485.53;4975335;28;45416;-60
2022/10/19 12:13:53;;;;;;;;;10.50;9.25;;;;;26.13;44.70;101478.41;4976757;28;46119;-60
2022/10/19 12:16:20;;;;;;;;;9.25;9.25;;;;;25.84;45.20;101476.00;4975698;28;45410;-59
2022/10/19 12:18:49;;;;;;;;;10.00;10.00;;;;;25.45;46.20;101481.84;4973887;28;45763;-59
2022/10/19 12:21:23;;;;;;;;;10.50;10.50;;;;;25.14;46.24;101480.41;4977993;28;46452;-60
2022/10/19 12:23:50;;;;;;;;;9.50;9.50;;;;;25.04;46.91;101490.50;4977811;28;46193;-59
2022/10/19 12:26:17;;;;;;;;;12.25;10.00;;;;;24.97;47.17;101492.16;4972972;28;52696;-59
2022/10/19 12:28:54;;;;;;;;;8.75;8.75;;;;;24.81;47.92;101490.97;4975143;28;45379;-59
2022/10/19 12:31:20;;;;;;;;;9.25;9.25;;;;;24.69;48.23;101498.50;4980354;28;45515;-59
2022/10/19 12:33:55;;;;;;;;;12.00;10.00;;;;;24.52;48.65;101491.97;4980273;28;45589;-60
2022/10/19 12:36:40;;;;;;;;;10.00;10.00;;;;;24.40;48.34;101491.28;4987689;28;45365;-60
2022/10/19 12:39:17;;;;;;;;;12.50;10.00;;;;;24.26;49.87;101492.66;4980814;28;45687;-59
2022/10/19 12:41:52;;;;;;;;;12.75;12.75;;;;;24.10;49.99;101485.13;4980546;28;45703;-59
2022/10/19 12:44:48;;;;;;;;;10.25;10.25;;;;;24.14;49.61;101476.69;4973102;28;46240;-59
2022/10/19 12:47:18;;;;;;;;;11.50;10.50;;;;;24.10;50.58;101473.41;4989310;28;45809;-59
2022/10/19 12:49:47;;;;;;;;;12.50;11.00;;;;;24.14;50.12;101466.69;4996988;28;45551;-59
2022/10/19 12:52:14;;;;;;;;;10.50;8.50;;;;;24.21;50.49;101447.91;4976926;28;45693;-59
2022/10/19 12:54:41;;;;;;;;;10.75;10.75;;;;;24.16;49.86;101445.66;4998146;28;45486;-59
2022/10/19 12:57:26;;;;;;;;;13.50;11.50;;;;;24.05;51.24;101430.41;4997165;28;45534;-59
2022/10/19 13:00:02;;;;;;;;;12.33;11.00;;;;;23.89;51.34;101435.59;4972639;28;45680;-58
2022/10/19 13:02:31;;;;;;;;;9.50;9.00;;;;;23.75;51.41;101426.94;4994253;28;45546;-58
2022/10/19 13:04:57;;;;;;;;;11.00;11.00;;;;;23.67;51.68;101415.09;4973203;28;46031;-59
2022/10/19 13:07:24;;;;;;;;;13.75;12.25;;;;;23.72;51.75;101420.94;4972029;28;69960;-60
2022/10/19 13:09:59;;;;;;;;;12.00;11.00;;;;;23.75;51.52;101416.06;4975906;28;45621;-60
2022/10/19 13:12:24;;;;;;;;;14.25;12.50;;;;;23.82;51.88;101408.19;4971364;28;45451;-60
2022/10/19 13:14:50;;;;;;;;;11.50;11.50;;;;;23.93;51.72;101409.88;4997039;28;47019;-60
2022/10/19 13:17:37;;;;;;;;;12.00;9.25;;;;;23.99;51.62;101402.97;4976128;28;45561;-60
2022/10/19 13:20:14;;;;;;;;;13.00;12.00;;;;;24.03;51.86;101394.38;4990399;28;45780;-60
2022/10/19 13:22:41;;;;;;;;;10.25;10.25;;;;;24.01;51.31;101392.81;4988999;28;45478;-60
2022/10/19 13:25:15;;;;;;;;;10.50;10.50;;;;;23.91;51.35;101385.59;4976448;28;46010;-60
2022/10/19 13:27:44;;;;;;;;;8.50;8.50;;;;;23.81;51.55;101379.31;4996530;28;45428;-60
2022/10/19 13:30:35;;;;;;;;;12.50;10.75;;;;;23.68;52.07;101370.66;4990378;28;45374;-60
2022/10/19 13:33:28;;;;;;;;;11.00;11.00;;;;;23.52;52.86;101366.69;4988601;28;45503;-60
2022/10/19 13:36:03;;;;;;;;;12.00;10.75;;;;;23.38;52.83;101359.03;4973795;28;46185;-60
2022/10/19 13:38:29;;;;;;;;;11.50;11.50;;;;;23.21;53.06;101344.38;4985867;28;45515;-60
2022/10/19 13:41:02;;;;;;;;;14.75;11.75;;;;;23.04;54.02;101340.50;4996446;28;45441;-60
2022/10/19 13:43:38;;;;;;;;;10.50;10.50;;;;;22.87;53.90;101331.25;4961402;28;45452;-60
2022/10/19 13:46:08;;;;;;;;;12.25;12.25;;;;;22.78;54.59;101327.56;4962786;28;47657;-59
2022/10/19 13:48:37;;;;;;;;;13.33;11.33;;;;;22.74;54.55;101328.84;4978791;28;45785;-60
2022/10/19 13:51:15;;;;;;;;;12.25;11.00;;;;;22.73;54.91;101325.25;4978124;28;45615;-60
2022/10/19 13:54:05;;;;;;;;;12.25;11.00;;;;;22.72;54.61;101320.88;4980429;28;45729;-60
2022/10/19 13:56:52;;;;;;;;;11.67;10.33;;;;;22.74;55.09;101324.28;4995235;28;45306;-60
2022/10/19 13:59:27;;;;;;;;;14.00;14.00;;;;;22.76;55.18;101319.56;4995420;28;45535;-59
2022/10/19 14:02:13;;;;;;;;;7.25;7.25;;;;;22.80;54.92;101315.56;4982964;28;45876;-59
2022/10/19 14:05:13;;;;;;;;;12.25;12.25;;;;;22.80;55.13;101309.28;4989566;28;45629;-60
2022/10/19 14:08:00;;;;;;;;;11.50;11.25;;;;;22.84;55.38;101309.84;4977234;28;46290;-60
2022/10/19 14:10:26;;;;;;;;;10.25;9.75;;;;;22.87;55.38;101301.44;4974722;28;45361;-68
2022/10/19 14:12:51;;;;;;;;;13.50;11.75;;;;;22.90;55.62;101303.84;4978999;28;61524;-67
2022/10/19 14:15:16;;;;;;;;;11.00;11.00;;;;;22.94;55.37;101295.28;4997475;28;46691;-67
2022/10/19 14:17:42;;;;;;;;;11.00;10.00;;;;;22.96;55.37;101293.25;4998003;28;45523;-69
2022/10/19 14:20:35;;;;;;;;;12.00;11.00;;;;;23.01;55.18;101300.09;4998605;28;45328;-69
2022/10/19 14:23:21;;;;;;;;;9.00;9.00;;;;;22.99;55.07;101294.00;4976992;28;45683;-70
2022/10/19 14:26:06;;;;;;;;;12.33;10.67;;;;;22.98;55.47;101284.13;4970991;28;45545;-69
2022/10/19 14:28:32;;;;;;;;;9.67;9.00;;;;;22.96;55.51;101281.56;4998867;28;47082;-69
2022/10/19 14:31:00;;;;;;;;;9.00;9.00;;;;;22.92;55.51;101278.28;4997473;28;45356;-71
2022/10/19 14:33:27;;;;;;;;;9.00;8.50;;;;;22.87;55.92;101277.88;4998999;28;45556;-71
2022/10/19 14:35:53;;;;;;;;;8.50;8.00;;;;;22.83;55.83;101281.88;4977915;28;45617;-71
2022/10/19 14:38:34;;;;;;;;;8.67;8.67;;;;;22.78;55.91;101284.16;4998802;28;58185;-71
2022/10/19 14:41:00;;;;;;;;;10.33;9.33;;;;;22.76;56.16;101280.75;4982400;28;45480;-71
2022/10/19 14:43:28;;;;;;;;;9.00;9.00;;;;;22.71;56.40;101273.06;4981410;28;45464;-71
2022/10/19 14:46:05;;;;;;;;;10.00;10.00;;;;;22.68;56.42;101267.91;4981161;28;45647;-71
2022/10/19 14:48:35;;;;;;;;;14.33;10.33;;;;;22.62;56.54;101258.50;4999115;28;45444;-71
2022/10/19 14:51:01;;;;;;;;;8.00;8.00;;;;;22.57;56.96;101252.66;4982159;28;45356;-71
2022/10/19 14:53:38;;;;;;;;;11.00;9.00;;;;;22.49;57.13;101248.94;4965043;28;45366;-71
2022/10/19 14:56:09;;;;;;;;;10.00;10.00;;;;;22.44;57.00;101249.41;4982284;28;45521;-71
2022/10/19 14:58:40;;;;;;;;;10.67;8.67;;;;;22.41;57.31;101245.13;4991589;28;45508;-71
2022/10/19 15:01:06;;;;;;;;;8.00;8.00;;;;;22.44;56.97;101241.28;4998173;28;45472;-71
2022/10/19 15:03:32;;;;;;;;;13.00;11.67;;;;;22.47;57.39;101240.97;4981339;28;45469;-72
2022/10/19 15:06:07;;;;;;;;;10.00;9.00;;;;;22.48;57.46;101236.44;4980859;28;45418;-71
2022/10/19 15:08:41;;;;;;;;;10.67;9.00;;;;;22.46;57.71;101241.97;5000584;28;45575;-72
2022/10/19 15:11:08;;;;;;;;;9.75;9.75;;;;;22.45;58.23;101233.00;4977195;28;45460;-76
2022/10/19 15:13:40;;;;;;;;;10.33;10.33;;;;;22.40;58.18;101221.72;4974687;28;45466;-76
2022/10/19 15:16:05;;;;;;;;;12.00;11.50;;;;;22.42;57.93;101218.88;4985147;28;45492;-76
2022/10/19 15:18:38;;;;;;;;;8.33;8.33;;;;;22.43;58.01;101228.72;4983265;28;45398;-76
2022/10/19 15:21:13;;;;;;;;;12.67;10.67;;;;;22.42;57.94;101227.88;5000252;28;45396;-76
2022/10/19 15:23:44;;;;;;;;;13.00;10.25;;;;;22.37;58.01;101221.16;4983388;28;45303;-73
2022/10/19 15:26:24;;;;;;;;;14.50;12.00;;;;;22.33;57.89;101217.84;4963989;28;45705;-73
2022/10/19 15:28:51;;;;;;;;;11.75;11.75;;;;;22.29;58.31;101213.72;5000262;28;46387;-71
2022/10/19 15:31:19;;;;;;;;;8.75;8.50;;;;;22.27;58.15;101213.84;4986499;28;45425;-74
2022/10/19 15:33:49;;;;;;;;;13.00;11.00;;;;;22.24;58.54;101216.00;4988195;28;45774;-70
2022/10/19 15:36:18;;;;;;;;;9.67;9.67;;;;;22.23;58.51;101201.59;4985776;28;45436;-70
2022/10/19 15:39:05;;;;;;;;;10.00;9.00;;;;;22.19;58.59;101208.31;4999280;28;45893;-70
2022/10/19 15:41:33;;;;;;;;;11.00;10.67;;;;;22.15;58.62;101204.19;4984964;28;45524;-69
2022/10/19 15:44:01;;;;;;;;;6.75;5.50;;;;;22.13;58.65;101207.00;4997500;28;45353;-71
2022/10/19 15:46:29;;;;;;;;;10.00;8.00;;;;;22.10;58.97;101201.88;4991950;28;45604;-68
2022/10/19 15:49:14;;;;;;;;;8.33;8.33;;;;;22.06;59.55;101199.59;4998644;28;46535;-67
2022/10/19 15:51:43;;;;;;;;;10.33;8.00;;;;;22.00;59.51;101197.47;4998654;28;45439;-76
2022/10/19 15:54:08;;;;;;;;;9.67;9.67;;;;;21.90;59.83;101197.44;4998121;28;45762;-68
2022/10/19 15:56:38;;;;;;;;;9.50;9.50;;;;;21.85;59.35;101189.78;4997487;28;45523;-70
2022/10/19 15:59:15;;;;;;;;;11.50;9.25;;;;;21.79;59.93;101180.34;4993177;28;45644;-69
2022/10/19 16:01:42;;;;;;;;;11.67;11.67;;;;;21.75;60.18;101176.22;4991907;28;45477;-73